Time;durP1;ratioP1;P1;durP2;ratioP2;P2;SDS_P1;SDS_P2;PMS_P1;PMS_P2;Temp;Humidity;BMP_temperature;BMP_pressure;BME280_temperature;BME280_humidity;BME280_pressure;Samples;Min_cycle;Max_cycle;Signal;HPM_P1;HPM_P2
2024/01/29 00:00:55;;;;;;;124.30;54.20;;;;;;;-1.94;100.00;101011.48;273758;1266;22429;-90
2024/01/29 00:07:17;;;;;;;126.80;53.20;;;;;;;-1.97;100.00;101004.44;273928;1266;23192;-89
2024/01/29 00:13:19;;;;;;;116.30;48.10;;;;;;;-1.96;100.00;101000.70;273248;1266;22539;-88
2024/01/29 00:19:22;;;;;;;107.30;45.50;;;;;;;-1.95;100.00;101004.05;273326;1265;23623;-90
2024/01/29 00:25:24;;;;;;;105.10;45.50;;;;;;;-1.96;100.00;100999.90;273729;1266;23859;-90
2024/01/29 00:31:27;;;;;;;97.30;42.60;;;;;;;-2.05;100.00;101000.09;272417;1266;22565;-89
2024/01/29 00:37:29;;;;;;;100.20;44.40;;;;;;;-2.13;100.00;101005.53;273352;1266;22460;-90
2024/01/29 00:43:32;;;;;;;115.80;48.10;;;;;;;-2.20;100.00;101018.51;273679;1266;22454;-90
2024/01/29 00:49:34;;;;;;;117.40;50.70;;;;;;;-2.33;100.00;101028.31;273336;1266;22581;-89
2024/01/29 00:55:36;;;;;;;112.60;47.20;;;;;;;-2.40;100.00;101040.80;273181;1266;22396;-89
2024/01/29 01:01:41;;;;;;;108.10;45.20;;;;;;;-2.45;100.00;101049.98;273573;1265;22292;-89
2024/01/29 01:07:44;;;;;;;129.60;50.10;;;;;;;-2.53;100.00;101055.63;273773;1259;22429;-87
2024/01/29 01:13:46;;;;;;;123.50;49.10;;;;;;;-2.57;100.00;101065.09;272648;1266;22546;-88
2024/01/29 01:19:48;;;;;;;124.10;51.20;;;;;;;-2.59;100.00;101066.81;273603;1266;23639;-88
2024/01/29 01:25:53;;;;;;;131.30;52.40;;;;;;;-2.55;100.00;101060.84;273884;1266;22144;-88
2024/01/29 01:31:55;;;;;;;87.10;36.10;;;;;;;-2.55;100.00;101056.55;273733;1266;22840;-89
2024/01/29 01:37:57;;;;;;;122.20;49.90;;;;;;;-2.57;100.00;101048.63;273835;1266;22423;-87
2024/01/29 01:44:00;;;;;;;125.30;48.80;;;;;;;-2.65;100.00;101042.35;273789;1266;22404;-88
2024/01/29 01:50:07;;;;;;;100.00;41.60;;;;;;;-2.74;100.00;101032.73;273370;1266;22550;-88
2024/01/29 01:56:13;;;;;;;110.80;44.60;;;;;;;-2.82;100.00;101039.72;271395;1266;25491;-89
2024/01/29 02:02:15;;;;;;;80.10;35.00;;;;;;;-2.88;100.00;101040.18;272299;1266;23426;-88
2024/01/29 02:08:17;;;;;;;126.40;53.00;;;;;;;-2.89;100.00;101034.64;273731;1266;22453;-88
2024/01/29 02:14:20;;;;;;;116.40;49.90;;;;;;;-2.94;100.00;101030.80;273470;1266;23152;-87
2024/01/29 02:20:22;;;;;;;129.50;52.40;;;;;;;-2.98;100.00;101030.39;273521;1266;22328;-87
2024/01/29 02:26:24;;;;;;;123.20;49.80;;;;;;;-3.04;100.00;101033.60;273589;1260;23550;-88
2024/01/29 02:32:27;;;;;;;134.80;54.80;;;;;;;-3.14;100.00;101035.91;273215;1256;109244;-86
2024/01/29 02:38:36;;;;;;;142.40;57.80;;;;;;;-3.20;100.00;101028.17;270260;1269;22543;-87
2024/01/29 02:44:38;;;;;;;139.50;58.00;;;;;;;-3.25;100.00;101017.62;270584;1269;22634;-86
2024/01/29 02:50:45;;;;;;;121.10;50.00;;;;;;;-3.26;100.00;101019.01;271935;1269;22264;-87
2024/01/29 02:56:51;;;;;;;123.40;52.40;;;;;;;-3.33;100.00;101024.73;271073;1268;22599;-86
2024/01/29 03:02:55;;;;;;;129.70;50.10;;;;;;;-3.41;100.00;101030.46;270625;1269;22744;-87
2024/01/29 03:09:18;;;;;;;124.90;50.80;;;;;;;-3.47;100.00;101028.29;272790;1268;23079;-86
2024/01/29 03:15:21;;;;;;;114.60;46.40;;;;;;;-3.52;100.00;101026.88;273760;1269;22240;-86
2024/01/29 03:21:59;;;;;;;116.00;44.40;;;;;;;-3.57;100.00;101024.09;273800;1269;22218;-86
2024/01/29 03:28:03;;;;;;;115.70;50.10;;;;;;;-3.58;100.00;101021.95;273578;1269;22232;-87
2024/01/29 03:34:45;;;;;;;101.10;44.00;;;;;;;-3.62;100.00;101022.16;273619;1272;22177;-87
2024/01/29 03:41:48;;;;;;;127.10;51.80;;;;;;;-3.67;100.00;101028.36;273765;1269;22395;-86
2024/01/29 03:48:19;;;;;;;127.80;52.30;;;;;;;-3.70;100.00;101026.15;273626;1269;22298;-85
2024/01/29 03:54:23;;;;;;;124.00;52.00;;;;;;;-3.73;100.00;101013.23;273554;1269;22236;-85
2024/01/29 04:00:30;;;;;;;108.50;44.20;;;;;;;-3.72;100.00;101002.45;273814;1269;22349;-84
2024/01/29 04:07:12;;;;;;;116.60;47.00;;;;;;;-3.76;100.00;101005.50;274016;1269;22488;-85
2024/01/29 04:13:56;;;;;;;117.00;47.30;;;;;;;-3.82;100.00;100997.83;273752;1268;22191;-85
2024/01/29 04:20:18;;;;;;;109.70;44.70;;;;;;;-3.86;100.00;100992.22;273966;1269;22238;-84
2024/01/29 04:27:01;;;;;;;113.40;48.10;;;;;;;-3.93;100.00;100993.94;273262;1268;23669;-84
2024/01/29 04:33:27;;;;;;;113.10;45.60;;;;;;;-3.93;100.00;100979.91;273528;1269;22394;-83
2024/01/29 04:39:50;;;;;;;120.30;48.70;;;;;;;-3.97;100.00;100972.27;273472;1268;22164;-83
2024/01/29 04:45:52;;;;;;;128.40;50.20;;;;;;;-4.04;100.00;100970.07;273335;1269;22871;-84
2024/01/29 04:51:55;;;;;;;114.60;45.50;;;;;;;-4.12;100.00;100969.72;273459;1268;25281;-83
2024/01/29 04:57:58;;;;;;;120.00;48.30;;;;;;;-4.17;100.00;100970.58;271538;1269;23867;-83
2024/01/29 05:04:24;;;;;;;137.70;51.20;;;;;;;-4.20;100.00;100972.03;270380;1268;22275;-83
2024/01/29 05:10:42;;;;;;;;;;;;;;;-4.25;100.00;100972.73;272600;1268;22485;-83
2024/01/29 05:16:45;;;;;;;117.90;46.20;;;;;;;-4.34;100.00;100969.61;272421;1269;22670;-82
2024/01/29 05:22:48;;;;;;;134.80;52.30;;;;;;;-4.42;100.00;100974.61;271982;1268;22226;-83
2024/01/29 05:29:11;;;;;;;126.20;52.10;;;;;;;-4.48;100.00;100978.23;274088;1276;22232;-82
2024/01/29 05:35:13;;;;;;;122.30;52.80;;;;;;;-4.46;100.00;100982.02;273019;1269;458857;-83
2024/01/29 05:41:16;;;;;;;133.90;52.70;;;;;;;-4.44;100.00;100979.77;272756;1268;23735;-83
2024/01/29 05:47:17;;;;;;;118.60;48.80;;;;;;;-4.48;100.00;100982.84;271885;1268;22367;-85
2024/01/29 05:53:20;;;;;;;119.10;47.80;;;;;;;-4.53;100.00;100980.04;271178;1269;22563;-82
2024/01/29 05:59:42;;;;;;;106.40;45.20;;;;;;;-4.59;100.00;100989.30;271754;1268;23629;-85
2024/01/29 06:06:24;;;;;;;115.30;44.60;;;;;;;-4.59;100.00;100995.17;273010;1268;22216;-83
2024/01/29 06:12:47;;;;;;;106.70;41.40;;;;;;;-4.59;100.00;101013.73;272126;1269;22419;-82
2024/01/29 06:18:49;;;;;;;94.30;38.20;;;;;;;-4.57;100.00;101025.65;272757;1268;22356;-82
2024/01/29 06:25:32;;;;;;;108.20;40.30;;;;;;;-4.52;100.00;101031.27;273924;1271;22269;-84
2024/01/29 06:33:03;;;;;;;165.90;46.00;;;;;;;-4.41;100.00;101033.11;272219;1269;22415;-82
2024/01/29 06:40:27;;;;;;;155.00;49.30;;;;;;;-4.28;100.00;101030.41;273207;1269;22238;-81
2024/01/29 06:47:30;;;;;;;148.90;48.30;;;;;;;-4.24;100.00;101028.15;272058;1269;22402;-83
2024/01/29 06:54:36;;;;;;;;;;;;;;;-4.16;100.00;101024.73;271752;1267;22603;-82
2024/01/29 07:00:59;;;;;;;171.10;57.20;;;;;;;-4.04;100.00;101020.30;273864;1272;22198;-81
2024/01/29 07:07:44;;;;;;;168.40;54.30;;;;;;;-3.97;100.00;101011.52;273625;1264;23024;-80
2024/01/29 07:14:07;;;;;;;156.20;55.70;;;;;;;-3.93;100.00;101017.05;273724;1269;22224;-81
2024/01/29 07:20:57;;;;;;;160.50;56.60;;;;;;;-3.82;100.00;101018.16;273354;1269;22220;-82
2024/01/29 07:28:28;;;;;;;172.60;60.30;;;;;;;-3.60;100.00;101010.92;273603;1269;22921;-80
2024/01/29 07:35:10;;;;;;;204.30;64.30;;;;;;;-3.35;100.00;101014.21;273510;1269;22511;-80
2024/01/29 07:41:55;;;;;;;234.50;76.70;;;;;;;-2.93;100.00;101011.79;273717;1269;22231;-81
2024/01/29 07:49:08;;;;;;;269.30;87.50;;;;;;;-2.53;100.00;101014.88;273215;1266;22414;-82
2024/01/29 07:56:31;;;;;;;265.60;90.80;;;;;;;-2.17;100.00;101009.68;271287;1268;22314;-82
2024/01/29 08:03:31;;;;;;;273.00;106.50;;;;;;;-1.84;100.00;100998.10;270115;1269;25460;-82
2024/01/29 08:10:08;;;;;;;286.70;113.60;;;;;;;-1.39;100.00;100985.48;273397;1268;23561;-82
2024/01/29 08:16:14;;;;;;;303.30;115.80;;;;;;;-0.89;100.00;100983.40;273842;1269;22171;-82
2024/01/29 08:22:20;;;;;;;280.60;103.00;;;;;;;-0.48;100.00;100988.46;273537;1270;23899;-82
2024/01/29 08:28:22;;;;;;;277.00;99.20;;;;;;;-0.04;100.00;100984.39;273866;1273;22207;-82
2024/01/29 08:35:06;;;;;;;260.80;94.30;;;;;;;0.47;100.00;100981.84;273584;1268;22676;-82
2024/01/29 08:41:09;;;;;;;262.90;98.80;;;;;;;0.90;100.00;100988.25;273377;1268;22383;-82
2024/01/29 08:47:11;;;;;;;280.80;108.70;;;;;;;1.38;100.00;100996.77;273019;1264;22244;-81
2024/01/29 08:53:14;;;;;;;248.80;100.70;;;;;;;1.78;100.00;101010.73;273133;1269;22382;-82
2024/01/29 08:59:19;;;;;;;211.40;83.70;;;;;;;2.06;100.00;101013.98;273028;1269;23328;-81
2024/01/29 09:05:21;;;;;;;204.40;80.50;;;;;;;2.39;100.00;101018.81;273066;1269;22753;-82
2024/01/29 09:11:23;;;;;;;184.20;73.20;;;;;;;2.92;100.00;101016.98;272982;1268;22950;-81
2024/01/29 09:17:25;;;;;;;154.60;61.70;;;;;;;3.33;100.00;101011.23;273272;1268;22325;-82
2024/01/29 09:23:29;;;;;;;133.90;53.60;;;;;;;3.60;100.00;101010.46;273361;1269;23544;-82
2024/01/29 09:29:31;;;;;;;122.30;48.80;;;;;;;4.05;100.00;101012.75;273399;1269;22286;-82
2024/01/29 09:35:33;;;;;;;127.90;49.30;;;;;;;4.56;100.00;101018.35;272318;1268;22288;-83
2024/01/29 09:41:37;;;;;;;110.70;47.90;;;;;;;4.91;100.00;101018.90;272464;1269;23300;-83
2024/01/29 09:47:40;;;;;;;110.70;47.80;;;;;;;5.35;100.00;101015.21;273316;1268;22411;-83
2024/01/29 09:53:42;;;;;;;102.50;46.40;;;;;;;5.93;100.00;101014.45;273231;1268;22234;-84
2024/01/29 09:59:44;;;;;;;88.40;43.30;;;;;;;6.36;100.00;101011.23;272534;1268;22333;-84
2024/01/29 10:05:46;;;;;;;77.40;40.80;;;;;;;6.72;100.00;101006.73;271891;1252;22548;-84
2024/01/29 10:11:51;;;;;;;67.50;36.40;;;;;;;7.04;100.00;100999.39;270899;1268;22338;-84
2024/01/29 10:17:53;;;;;;;63.40;34.80;;;;;;;7.36;100.00;100986.14;272671;1269;22594;-86
2024/01/29 10:23:56;;;;;;;51.30;31.80;;;;;;;7.78;100.00;100985.72;272564;1268;22235;-85
2024/01/29 10:29:58;;;;;;;51.40;29.00;;;;;;;8.35;100.00;100981.54;273532;1268;22475;-87
2024/01/29 10:36:01;;;;;;;44.50;25.40;;;;;;;8.58;100.00;100975.70;273402;1268;22746;-88
2024/01/29 10:42:05;;;;;;;41.80;25.80;;;;;;;8.63;100.00;100973.77;272771;1262;23445;-86
2024/01/29 10:48:13;;;;;;;43.00;25.80;;;;;;;8.62;100.00;100961.23;273037;1269;23634;-86
2024/01/29 10:54:16;;;;;;;38.80;24.10;;;;;;;8.53;100.00;100954.66;272923;1269;22364;-87
2024/01/29 11:00:18;;;;;;;36.30;21.70;;;;;;;8.46;100.00;100951.78;273011;1269;22447;-86
2024/01/29 11:06:22;;;;;;;37.40;20.80;;;;;;;8.55;100.00;100946.36;272929;1268;22238;-87
2024/01/29 11:12:25;;;;;;;28.70;17.90;;;;;;;8.77;100.00;100939.26;273049;1268;22469;-86
2024/01/29 11:18:32;;;;;;;33.20;18.90;;;;;;;8.85;100.00;100927.87;273049;1269;22358;-87
2024/01/29 11:24:34;;;;;;;25.10;15.70;;;;;;;8.79;100.00;100929.52;273237;1269;22382;-88
2024/01/29 11:30:38;;;;;;;23.50;14.20;;;;;;;8.77;100.00;100926.56;273192;1268;22933;-87
2024/01/29 11:36:40;;;;;;;33.80;16.20;;;;;;;8.74;100.00;100919.94;273092;1268;23146;-87
2024/01/29 11:42:43;;;;;;;23.70;13.50;;;;;;;8.55;100.00;100909.95;272964;1269;22784;-88
2024/01/29 11:48:45;;;;;;;22.20;13.30;;;;;;;8.51;100.00;100905.08;272926;1269;22303;-88
2024/01/29 11:54:46;;;;;;;20.60;11.10;;;;;;;8.51;100.00;100910.92;272913;1269;22310;-88
2024/01/29 12:00:50;;;;;;;16.10;9.20;;;;;;;8.52;100.00;100907.14;273250;1269;22387;-88
2024/01/29 12:06:53;;;;;;;12.10;7.10;;;;;;;8.42;100.00;100912.34;272562;1268;22461;-88
2024/01/29 12:12:55;;;;;;;12.60;7.40;;;;;;;8.20;100.00;100910.16;273162;1269;22474;-88
2024/01/29 12:18:59;;;;;;;11.60;6.50;;;;;;;8.07;100.00;100905.44;273112;1268;23538;-89
2024/01/29 12:25:01;;;;;;;11.10;7.40;;;;;;;7.79;100.00;100905.80;272596;1268;22344;-88
2024/01/29 12:31:06;;;;;;;14.70;7.10;;;;;;;7.71;100.00;100909.28;272785;1268;23448;-87
2024/01/29 12:37:42;;;;;;;12.90;7.10;;;;;;;7.74;100.00;100909.27;273163;1269;22627;-88
2024/01/29 12:53:10;;;;;;;12.00;6.50;;;;;;;7.72;100.00;100907.52;272229;1277;22361;-89
2024/01/29 13:01:02;;;;;;;12.10;6.10;;;;;;;7.85;100.00;100911.34;271846;1275;22387;-88
2024/01/29 13:07:42;;;;;;;14.20;6.60;;;;;;;7.88;100.00;100908.08;271592;1275;22347;-88
2024/01/29 13:30:13;;;;;;;55.30;25.50;;;;;;;7.22;100.00;100911.42;271451;1284;22239;-88
2024/01/29 13:53:49;;;;;;;38.80;21.70;;;;;;;6.77;100.00;100903.38;270087;1288;22462;-88
2024/01/29 14:30:35;;;;;;;33.20;18.40;;;;;;;6.22;100.00;100900.20;271965;1267;22699;-88
2024/01/29 14:46:12;;;;;;;33.70;17.60;;;;;;;6.00;100.00;100893.52;270540;1286;23489;-88
2024/01/29 14:54:01;;;;;;;37.70;19.00;;;;;;;5.87;100.00;100887.84;270392;1285;22350;-88
2024/01/29 15:24:14;;;;;;;38.80;18.70;;;;;;;4.86;100.00;100887.14;268669;1294;22349;-89
2024/01/29 16:41:03;;;;;;;59.00;29.40;;;;;;;1.48;100.00;100890.25;272594;1271;22373;-87
2024/01/29 16:47:05;;;;;;;59.60;29.00;;;;;;;1.25;100.00;100893.20;272617;1272;24300;-86
2024/01/29 16:53:07;;;;;;;62.50;29.70;;;;;;;1.04;100.00;100898.94;272777;1268;22594;-87
2024/01/29 16:59:09;;;;;;;63.80;32.30;;;;;;;0.85;100.00;100900.60;273370;1262;22786;-86
2024/01/29 17:05:12;;;;;;;63.20;36.00;;;;;;;0.70;100.00;100902.11;273407;1260;23678;-86
2024/01/29 17:11:14;;;;;;;67.00;35.30;;;;;;;0.52;100.00;100904.90;273085;1269;23496;-86
2024/01/29 17:17:16;;;;;;;72.60;37.30;;;;;;;0.35;100.00;100909.77;273225;1269;24103;-86
2024/01/29 17:23:21;;;;;;;72.80;36.60;;;;;;;0.22;100.00;100907.40;273194;1268;22436;-87
2024/01/29 17:29:24;;;;;;;104.30;48.40;;;;;;;0.08;100.00;100909.34;273219;1259;22500;-85
2024/01/29 18:38:50;;;;;;;162.60;70.80;;;;;;;-0.98;100.00;100927.01;272027;1273;22605;-84
2024/01/29 18:46:21;;;;;;;120.10;55.50;;;;;;;-1.09;100.00;100924.10;271885;1276;23600;-85
2024/01/29 18:54:29;;;;;;;134.40;63.10;;;;;;;-1.16;100.00;100920.09;268591;1284;25667;-85
2024/01/29 19:18:23;;;;;;;133.40;59.80;;;;;;;-1.47;100.00;100926.65;270260;1292;22350;-85
2024/01/29 21:18:07;;;;;;;161.20;80.60;;;;;;;-2.59;100.00;100929.27;273876;1273;22208;-87
2024/01/29 21:49:28;;;;;;;185.90;91.10;;;;;;;-2.78;100.00;100933.65;272895;1277;22442;-88
2024/01/29 21:57:25;;;;;;;201.30;99.80;;;;;;;-2.83;100.00;100940.36;271678;1281;22703;-88
2024/01/29 22:20:50;;;;;;;141.70;72.20;;;;;;;-3.03;100.00;100929.92;270676;1285;23825;-88
2024/01/29 22:58:54;;;;;;;178.60;85.70;;;;;;;-3.37;100.00;100923.31;273330;1270;23000;-88
2024/01/29 23:14:22;;;;;;;189.10;90.90;;;;;;;-3.37;100.00;100916.02;272771;1272;23033;-88
